sensor_id;sensor_type;location;lat;lon;timestamp;pressure;altitude;pressure_sealevel;temperature;humidity
55604;BME280;41468;48.838;9.330;2022-11-21T00:01:33;97551.38;;;6.50;86.84
55604;BME280;41468;48.838;9.330;2022-11-21T00:04:00;97547.84;;;6.50;86.84
55604;BME280;41468;48.838;9.330;2022-11-21T00:06:32;97553.72;;;6.52;86.98
55604;BME280;41468;48.838;9.330;2022-11-21T00:08:59;97556.91;;;6.57;87.16
55604;BME280;41468;48.838;9.330;2022-11-21T00:11:26;97548.09;;;6.41;87.02
55604;BME280;41468;48.838;9.330;2022-11-21T00:13:52;97548.94;;;6.45;88.91
55604;BME280;41468;48.838;9.330;2022-11-21T00:16:19;97544.81;;;6.32;88.95
55604;BME280;41468;48.838;9.330;2022-11-21T00:18:46;97552.00;;;6.44;89.27
55604;BME280;41468;48.838;9.330;2022-11-21T00:21:18;97547.44;;;6.48;88.91
55604;BME280;41468;48.838;9.330;2022-11-21T00:23:46;97537.59;;;6.39;89.13
55604;BME280;41468;48.838;9.330;2022-11-21T00:26:14;97539.81;;;6.34;90.06
55604;BME280;41468;48.838;9.330;2022-11-21T00:28:41;97535.19;;;6.34;91.37
55604;BME280;41468;48.838;9.330;2022-11-21T00:31:08;97533.81;;;6.25;92.17
55604;BME280;41468;48.838;9.330;2022-11-21T00:33:35;97537.09;;;6.34;91.41
55604;BME280;41468;48.838;9.330;2022-11-21T00:36:08;97528.56;;;6.32;90.71
55604;BME280;41468;48.838;9.330;2022-11-21T00:38:36;97528.56;;;6.32;90.36
55604;BME280;41468;48.838;9.330;2022-11-21T00:41:03;97530.09;;;6.33;91.67
55604;BME280;41468;48.838;9.330;2022-11-21T00:43:30;97533.25;;;6.35;92.19
55604;BME280;41468;48.838;9.330;2022-11-21T00:45:57;97536.16;;;6.46;92.20
55604;BME280;41468;48.838;9.330;2022-11-21T00:48:27;97521.84;;;6.45;92.03
55604;BME280;41468;48.838;9.330;2022-11-21T00:50:55;97509.47;;;6.48;91.80
55604;BME280;41468;48.838;9.330;2022-11-21T00:53:21;97509.88;;;6.50;90.93
55604;BME280;41468;48.838;9.330;2022-11-21T00:55:48;97485.84;;;6.48;90.59
55604;BME280;41468;48.838;9.330;2022-11-21T00:58:15;97491.44;;;6.36;91.68
55604;BME280;41468;48.838;9.330;2022-11-21T01:00:41;97488.28;;;6.34;90.71
55604;BME280;41468;48.838;9.330;2022-11-21T01:03:08;97484.31;;;6.28;89.87
55604;BME280;41468;48.838;9.330;2022-11-21T01:05:35;97486.72;;;6.33;89.65
55604;BME280;41468;48.838;9.330;2022-11-21T01:08:02;97487.88;;;6.32;89.58
55604;BME280;41468;48.838;9.330;2022-11-21T01:10:28;97489.50;;;6.36;89.74
55604;BME280;41468;48.838;9.330;2022-11-21T01:12:55;97492.00;;;6.26;89.00
55604;BME280;41468;48.838;9.330;2022-11-21T01:15:22;97499.66;;;6.20;89.29
55604;BME280;41468;48.838;9.330;2022-11-21T01:17:49;97506.66;;;6.21;88.20
55604;BME280;41468;48.838;9.330;2022-11-21T01:20:15;97502.78;;;6.22;87.51
55604;BME280;41468;48.838;9.330;2022-11-21T01:22:42;97500.03;;;6.18;87.91
55604;BME280;41468;48.838;9.330;2022-11-21T01:25:09;97490.03;;;6.23;88.39
55604;BME280;41468;48.838;9.330;2022-11-21T01:27:40;97491.19;;;6.22;88.87
55604;BME280;41468;48.838;9.330;2022-11-21T01:30:07;97484.16;;;6.20;88.02
55604;BME280;41468;48.838;9.330;2022-11-21T01:32:34;97490.59;;;6.32;88.50
55604;BME280;41468;48.838;9.330;2022-11-21T01:35:00;97492.00;;;6.26;88.74
55604;BME280;41468;48.838;9.330;2022-11-21T01:37:27;97486.19;;;6.24;90.04
55604;BME280;41468;48.838;9.330;2022-11-21T01:39:54;97484.75;;;6.30;90.10
55604;BME280;41468;48.838;9.330;2022-11-21T01:42:20;97487.81;;;6.28;91.34
55604;BME280;41468;48.838;9.330;2022-11-21T01:44:50;97482.81;;;6.30;93.36
55604;BME280;41468;48.838;9.330;2022-11-21T01:47:17;97485.16;;;6.32;93.80
55604;BME280;41468;48.838;9.330;2022-11-21T01:49:44;97478.94;;;6.31;94.60
55604;BME280;41468;48.838;9.330;2022-11-21T01:52:25;97473.03;;;6.26;95.23
55604;BME280;41468;48.838;9.330;2022-11-21T01:55:00;97469.06;;;6.19;95.25
55604;BME280;41468;48.838;9.330;2022-11-21T01:57:38;97472.91;;;6.18;94.15
55604;BME280;41468;48.838;9.330;2022-11-21T02:02:46;97475.44;;;6.08;99.10
55604;BME280;41468;48.838;9.330;2022-11-21T02:05:20;97474.50;;;6.00;98.07
55604;BME280;41468;48.838;9.330;2022-11-21T02:07:48;97477.56;;;5.98;99.10
55604;BME280;41468;48.838;9.330;2022-11-21T02:10:15;97475.03;;;5.90;99.24
55604;BME280;41468;48.838;9.330;2022-11-21T02:12:48;97470.41;;;5.90;100.00
55604;BME280;41468;48.838;9.330;2022-11-21T02:15:16;97466.56;;;5.91;100.00
55604;BME280;41468;48.838;9.330;2022-11-21T02:17:44;97471.63;;;5.93;100.00
55604;BME280;41468;48.838;9.330;2022-11-21T02:20:15;97470.16;;;5.95;100.00
55604;BME280;41468;48.838;9.330;2022-11-21T02:25:30;97469.91;;;6.04;100.00
55604;BME280;41468;48.838;9.330;2022-11-21T02:28:00;97467.59;;;6.03;100.00
55604;BME280;41468;48.838;9.330;2022-11-21T02:30:30;97475.56;;;5.95;100.00
55604;BME280;41468;48.838;9.330;2022-11-21T02:32:57;97471.94;;;6.07;100.00
55604;BME280;41468;48.838;9.330;2022-11-21T02:35:24;97475.06;;;6.09;100.00
55604;BME280;41468;48.838;9.330;2022-11-21T02:38:21;97466.81;;;6.02;100.00
55604;BME280;41468;48.838;9.330;2022-11-21T02:40:53;97460.53;;;5.98;99.14
55604;BME280;41468;48.838;9.330;2022-11-21T02:43:45;97470.56;;;5.97;99.47
55604;BME280;41468;48.838;9.330;2022-11-21T02:46:13;97461.06;;;5.88;98.84
55604;BME280;41468;48.838;9.330;2022-11-21T02:48:39;97463.72;;;5.84;99.15
55604;BME280;41468;48.838;9.330;2022-11-21T02:51:07;97466.56;;;5.91;98.64
55604;BME280;41468;48.838;9.330;2022-11-21T02:53:41;97455.53;;;6.00;97.91
55604;BME280;41468;48.838;9.330;2022-11-21T02:56:07;97456.59;;;5.95;97.54
55604;BME280;41468;48.838;9.330;2022-11-21T02:58:35;97450.50;;;5.83;98.13
55604;BME280;41468;48.838;9.330;2022-11-21T03:01:01;97446.78;;;5.91;98.49
55604;BME280;41468;48.838;9.330;2022-11-21T03:03:28;97437.19;;;5.93;98.73
55604;BME280;41468;48.838;9.330;2022-11-21T03:05:55;97449.69;;;5.98;98.29
55604;BME280;41468;48.838;9.330;2022-11-21T03:08:22;97442.69;;;5.97;97.94
55604;BME280;41468;48.838;9.330;2022-11-21T03:10:48;97445.81;;;5.99;97.28
55604;BME280;41468;48.838;9.330;2022-11-21T03:13:15;97433.00;;;5.96;96.97
55604;BME280;41468;48.838;9.330;2022-11-21T03:15:42;97434.28;;;6.02;97.18
55604;BME280;41468;48.838;9.330;2022-11-21T03:18:09;97430.97;;;5.93;97.70
55604;BME280;41468;48.838;9.330;2022-11-21T03:20:35;97427.28;;;6.01;97.21
55604;BME280;41468;48.838;9.330;2022-11-21T03:23:02;97425.28;;;5.98;97.13
55604;BME280;41468;48.838;9.330;2022-11-21T03:25:29;97420.78;;;6.06;96.95
55604;BME280;41468;48.838;9.330;2022-11-21T03:27:56;97427.16;;;5.94;97.01
55604;BME280;41468;48.838;9.330;2022-11-21T03:30:24;97420.72;;;5.83;96.03
55604;BME280;41468;48.838;9.330;2022-11-21T03:32:54;97420.25;;;5.96;96.76
55604;BME280;41468;48.838;9.330;2022-11-21T03:35:21;97422.72;;;6.05;95.05
55604;BME280;41468;48.838;9.330;2022-11-21T03:37:48;97416.00;;;5.99;96.14
55604;BME280;41468;48.838;9.330;2022-11-21T03:40:15;97416.88;;;6.03;96.54
55604;BME280;41468;48.838;9.330;2022-11-21T03:42:41;97410.25;;;6.01;97.01
55604;BME280;41468;48.838;9.330;2022-11-21T03:45:08;97418.72;;;5.99;95.95
55604;BME280;41468;48.838;9.330;2022-11-21T03:47:35;97416.44;;;6.01;95.73
55604;BME280;41468;48.838;9.330;2022-11-21T03:50:02;97428.63;;;5.91;96.17
55604;BME280;41468;48.838;9.330;2022-11-21T03:52:29;97417.09;;;5.94;95.95
55604;BME280;41468;48.838;9.330;2022-11-21T03:54:55;97408.75;;;6.03;96.85
55604;BME280;41468;48.838;9.330;2022-11-21T03:57:22;97408.47;;;6.08;96.68
55604;BME280;41468;48.838;9.330;2022-11-21T03:59:49;97414.31;;;6.10;95.95
55604;BME280;41468;48.838;9.330;2022-11-21T04:02:15;97414.31;;;6.10;95.49
55604;BME280;41468;48.838;9.330;2022-11-21T04:04:42;97420.13;;;6.12;95.37
55604;BME280;41468;48.838;9.330;2022-11-21T04:07:09;97411.31;;;6.15;95.68
55604;BME280;41468;48.838;9.330;2022-11-21T04:09:35;97416.00;;;6.18;96.27
55604;BME280;41468;48.838;9.330;2022-11-21T04:12:02;97414.38;;;6.14;96.64
55604;BME280;41468;48.838;9.330;2022-11-21T04:14:33;97417.31;;;6.28;96.57
55604;BME280;41468;48.838;9.330;2022-11-21T04:17:00;97413.03;;;6.27;95.59
55604;BME280;41468;48.838;9.330;2022-11-21T04:19:27;97405.25;;;6.26;95.16
55604;BME280;41468;48.838;9.330;2022-11-21T04:22:05;97411.88;;;6.28;95.42
55604;BME280;41468;48.838;9.330;2022-11-21T04:24:32;97416.41;;;6.20;94.42
55604;BME280;41468;48.838;9.330;2022-11-21T04:26:59;97402.66;;;6.10;95.73
55604;BME280;41468;48.838;9.330;2022-11-21T04:29:25;97408.66;;;6.19;96.44
55604;BME280;41468;48.838;9.330;2022-11-21T04:31:52;97396.06;;;6.07;96.12
55604;BME280;41468;48.838;9.330;2022-11-21T04:34:19;97394.06;;;6.27;96.30
55604;BME280;41468;48.838;9.330;2022-11-21T04:36:45;97391.78;;;6.29;95.71
55604;BME280;41468;48.838;9.330;2022-11-21T04:39:12;97395.63;;;6.28;95.69
55604;BME280;41468;48.838;9.330;2022-11-21T04:41:39;97396.84;;;6.31;95.79
55604;BME280;41468;48.838;9.330;2022-11-21T04:44:05;97398.28;;;6.25;95.86
55604;BME280;41468;48.838;9.330;2022-11-21T04:46:32;97393.88;;;6.16;97.49
55604;BME280;41468;48.838;9.330;2022-11-21T04:48:59;97397.84;;;6.23;97.02
55604;BME280;41468;48.838;9.330;2022-11-21T04:51:26;97394.84;;;6.28;97.96
55604;BME280;41468;48.838;9.330;2022-11-21T04:53:52;97392.88;;;6.25;97.59
55604;BME280;41468;48.838;9.330;2022-11-21T04:56:19;97390.03;;;6.17;97.79
55604;BME280;41468;48.838;9.330;2022-11-21T04:58:45;97392.00;;;6.20;97.55
55604;BME280;41468;48.838;9.330;2022-11-21T05:01:12;97402.75;;;6.13;97.75
55604;BME280;41468;48.838;9.330;2022-11-21T05:03:39;97396.53;;;6.13;98.11
55604;BME280;41468;48.838;9.330;2022-11-21T05:06:06;97403.88;;;6.12;98.73
55604;BME280;41468;48.838;9.330;2022-11-21T05:08:32;97405.91;;;6.88;100.00
55604;BME280;41468;48.838;9.330;2022-11-21T05:10:59;97397.88;;;6.46;97.85
55604;BME280;41468;48.838;9.330;2022-11-21T05:13:44;97406.13;;;6.30;97.87
55604;BME280;41468;48.838;9.330;2022-11-21T05:16:11;97407.69;;;6.31;98.96
55604;BME280;41468;48.838;9.330;2022-11-21T05:18:38;97402.97;;;6.28;98.56
55604;BME280;41468;48.838;9.330;2022-11-21T05:21:04;97398.78;;;6.30;98.06
55604;BME280;41468;48.838;9.330;2022-11-21T05:23:31;97402.97;;;6.28;97.80
55604;BME280;41468;48.838;9.330;2022-11-21T05:26:04;97403.13;;;6.35;98.54
55604;BME280;41468;48.838;9.330;2022-11-21T05:28:31;97405.53;;;6.40;97.75
55604;BME280;41468;48.838;9.330;2022-11-21T05:30:58;97407.47;;;6.39;97.80
55604;BME280;41468;48.838;9.330;2022-11-21T05:33:24;97410.88;;;6.36;96.85
55604;BME280;41468;48.838;9.330;2022-11-21T05:35:51;97405.53;;;6.40;98.33
55604;BME280;41468;48.838;9.330;2022-11-21T05:38:18;97409.78;;;6.41;96.65
55604;BME280;41468;48.838;9.330;2022-11-21T05:40:44;97417.19;;;6.44;96.71
55604;BME280;41468;48.838;9.330;2022-11-21T05:43:11;97417.03;;;6.33;96.90
55604;BME280;41468;48.838;9.330;2022-11-21T05:45:56;97424.22;;;6.45;97.79
55604;BME280;41468;48.838;9.330;2022-11-21T05:48:23;97423.06;;;6.69;100.00
55604;BME280;41468;48.838;9.330;2022-11-21T05:50:50;97422.94;;;6.62;96.59
55604;BME280;41468;48.838;9.330;2022-11-21T05:53:17;97424.75;;;6.54;96.24
55604;BME280;41468;48.838;9.330;2022-11-21T05:55:44;97424.59;;;6.47;98.16
55604;BME280;41468;48.838;9.330;2022-11-21T05:58:10;97427.28;;;6.44;96.45
55604;BME280;41468;48.838;9.330;2022-11-21T06:00:37;97433.19;;;6.49;97.22
55604;BME280;41468;48.838;9.330;2022-11-21T06:03:05;97422.69;;;6.48;97.44
55604;BME280;41468;48.838;9.330;2022-11-21T06:05:50;97423.47;;;6.48;97.07
55604;BME280;41468;48.838;9.330;2022-11-21T06:08:17;97419.56;;;6.46;96.79
55604;BME280;41468;48.838;9.330;2022-11-21T06:10:44;97426.63;;;6.50;97.18
55604;BME280;41468;48.838;9.330;2022-11-21T06:13:10;97420.66;;;7.78;100.00
55604;BME280;41468;48.838;9.330;2022-11-21T06:16:04;97431.56;;;7.81;93.43
55604;BME280;41468;48.838;9.330;2022-11-21T06:18:33;97417.19;;;7.81;90.50
55604;BME280;41468;48.838;9.330;2022-11-21T06:21:03;97418.16;;;7.32;89.54
55604;BME280;41468;48.838;9.330;2022-11-21T06:23:30;97416.03;;;7.18;90.81
55604;BME280;41468;48.838;9.330;2022-11-21T06:25:58;97417.88;;;6.87;91.76
55604;BME280;41468;48.838;9.330;2022-11-21T06:28:26;97423.09;;;6.73;92.47
55604;BME280;41468;48.838;9.330;2022-11-21T06:33:31;97421.41;;;6.64;94.21
55604;BME280;41468;48.838;9.330;2022-11-21T06:36:09;97414.38;;;6.60;95.36
55604;BME280;41468;48.838;9.330;2022-11-21T06:38:36;97425.09;;;6.53;95.28
55604;BME280;41468;48.838;9.330;2022-11-21T06:43:37;97425.16;;;6.56;95.30
55604;BME280;41468;48.838;9.330;2022-11-21T06:46:04;97428.13;;;6.48;95.58
55604;BME280;41468;48.838;9.330;2022-11-21T06:48:32;97429.38;;;6.54;94.82
55604;BME280;41468;48.838;9.330;2022-11-21T06:51:20;97435.09;;;6.49;95.30
55604;BME280;41468;48.838;9.330;2022-11-21T06:53:51;97437.88;;;6.52;94.67
55604;BME280;41468;48.838;9.330;2022-11-21T06:56:25;97440.47;;;6.45;94.69
55604;BME280;41468;48.838;9.330;2022-11-21T06:58:58;97444.75;;;6.46;95.64
55604;BME280;41468;48.838;9.330;2022-11-21T07:01:25;97443.38;;;6.56;94.52
55604;BME280;41468;48.838;9.330;2022-11-21T07:03:52;97433.00;;;6.61;95.12
55604;BME280;41468;48.838;9.330;2022-11-21T07:06:20;97436.84;;;6.60;94.47
55604;BME280;41468;48.838;9.330;2022-11-21T07:08:46;97425.34;;;6.67;93.76
55604;BME280;41468;48.838;9.330;2022-11-21T07:11:34;97429.19;;;6.66;93.77
55604;BME280;41468;48.838;9.330;2022-11-21T07:14:00;97434.13;;;6.60;93.85
55604;BME280;41468;48.838;9.330;2022-11-21T07:16:34;97430.63;;;6.60;94.40
55604;BME280;41468;48.838;9.330;2022-11-21T07:19:00;97432.03;;;6.50;94.50
55604;BME280;41468;48.838;9.330;2022-11-21T07:21:27;97438.28;;;6.54;95.10
55604;BME280;41468;48.838;9.330;2022-11-21T07:23:54;97435.06;;;6.45;94.44
55604;BME280;41468;48.838;9.330;2022-11-21T07:26:20;97428.47;;;6.46;94.45
55604;BME280;41468;48.838;9.330;2022-11-21T07:28:47;97427.16;;;6.59;93.95
55604;BME280;41468;48.838;9.330;2022-11-21T07:31:14;97426.97;;;6.49;93.35
55604;BME280;41468;48.838;9.330;2022-11-21T07:33:41;97431.53;;;6.45;94.29
55604;BME280;41468;48.838;9.330;2022-11-21T07:36:12;97424.22;;;6.45;94.20
55604;BME280;41468;48.838;9.330;2022-11-21T07:38:39;97433.19;;;6.49;93.84
55604;BME280;41468;48.838;9.330;2022-11-21T07:41:07;97432.63;;;6.40;93.64
55604;BME280;41468;48.838;9.330;2022-11-21T07:43:34;97435.34;;;6.40;94.10
55604;BME280;41468;48.838;9.330;2022-11-21T07:46:01;97437.53;;;6.54;94.14
55604;BME280;41468;48.838;9.330;2022-11-21T07:48:27;97432.03;;;6.50;94.21
55604;BME280;41468;48.838;9.330;2022-11-21T07:50:54;97434.44;;;6.55;93.64
55604;BME280;41468;48.838;9.330;2022-11-21T07:53:21;97438.28;;;6.54;94.16
55604;BME280;41468;48.838;9.330;2022-11-21T07:55:47;97447.69;;;6.60;93.82
55604;BME280;41468;48.838;9.330;2022-11-21T07:58:15;97436.63;;;6.69;92.79
55604;BME280;41468;48.838;9.330;2022-11-21T08:00:42;97446.34;;;6.74;92.93
55604;BME280;41468;48.838;9.330;2022-11-21T08:03:10;97446.25;;;6.67;94.13
55604;BME280;41468;48.838;9.330;2022-11-21T08:05:39;97443.25;;;6.72;93.89
55604;BME280;41468;48.838;9.330;2022-11-21T08:08:07;97441.09;;;6.84;91.43
55604;BME280;41468;48.838;9.330;2022-11-21T08:10:42;97445.88;;;6.91;90.96
55604;BME280;41468;48.838;9.330;2022-11-21T08:13:10;97453.72;;;6.96;91.81
55604;BME280;41468;48.838;9.330;2022-11-21T08:15:42;97458.72;;;7.21;88.85
55604;BME280;41468;48.838;9.330;2022-11-21T08:18:09;97452.66;;;7.31;86.94
55604;BME280;41468;48.838;9.330;2022-11-21T08:20:36;97451.75;;;7.50;86.28
55604;BME280;41468;48.838;9.330;2022-11-21T08:23:03;97446.09;;;7.62;85.10
55604;BME280;41468;48.838;9.330;2022-11-21T08:25:41;97440.47;;;7.78;85.22
55604;BME280;41468;48.838;9.330;2022-11-21T08:28:10;97432.53;;;7.96;84.26
55604;BME280;41468;48.838;9.330;2022-11-21T08:30:37;97438.34;;;8.35;81.85
55604;BME280;41468;48.838;9.330;2022-11-21T08:33:04;97444.31;;;8.45;80.69
55604;BME280;41468;48.838;9.330;2022-11-21T08:35:31;97447.31;;;8.36;82.22
55604;BME280;41468;48.838;9.330;2022-11-21T08:37:59;97442.63;;;8.33;82.71
55604;BME280;41468;48.838;9.330;2022-11-21T08:40:28;97444.41;;;8.55;81.14
55604;BME280;41468;48.838;9.330;2022-11-21T08:43:08;97435.56;;;8.66;81.18
55604;BME280;41468;48.838;9.330;2022-11-21T08:45:36;97440.16;;;8.58;79.55
55604;BME280;41468;48.838;9.330;2022-11-21T08:48:03;97439.47;;;8.68;77.71
55604;BME280;41468;48.838;9.330;2022-11-21T08:50:30;97437.53;;;8.69;76.24
55604;BME280;41468;48.838;9.330;2022-11-21T08:53:00;97431.47;;;8.90;78.09
55604;BME280;41468;48.838;9.330;2022-11-21T08:55:32;97432.53;;;8.74;76.50
55604;BME280;41468;48.838;9.330;2022-11-21T08:57:59;97427.00;;;8.67;75.65
55604;BME280;41468;48.838;9.330;2022-11-21T09:00:26;97424.44;;;8.81;77.16
55604;BME280;41468;48.838;9.330;2022-11-21T09:02:52;97424.63;;;8.62;78.70
55604;BME280;41468;48.838;9.330;2022-11-21T09:05:19;97424.88;;;8.46;77.70
55604;BME280;41468;48.838;9.330;2022-11-21T09:07:46;97425.91;;;8.34;79.39
55604;BME280;41468;48.838;9.330;2022-11-21T09:10:23;97424.28;;;8.26;79.17
55604;BME280;41468;48.838;9.330;2022-11-21T09:12:50;97427.72;;;8.19;78.65
55604;BME280;41468;48.838;9.330;2022-11-21T09:15:17;97416.78;;;8.16;80.27
55604;BME280;41468;48.838;9.330;2022-11-21T09:18:03;97412.53;;;8.15;79.74
55604;BME280;41468;48.838;9.330;2022-11-21T09:20:31;97401.69;;;8.18;79.58
55604;BME280;41468;48.838;9.330;2022-11-21T09:23:07;97407.75;;;8.05;81.00
55604;BME280;41468;48.838;9.330;2022-11-21T09:25:34;97411.66;;;8.07;82.20
55604;BME280;41468;48.838;9.330;2022-11-21T09:28:08;97402.84;;;8.17;80.15
55604;BME280;41468;48.838;9.330;2022-11-21T09:30:36;97402.44;;;8.19;80.99
55604;BME280;41468;48.838;9.330;2022-11-21T09:33:04;97402.88;;;8.21;81.30
55604;BME280;41468;48.838;9.330;2022-11-21T09:35:31;97402.44;;;8.19;82.75
55604;BME280;41468;48.838;9.330;2022-11-21T09:37:58;97396.97;;;8.12;83.06
55604;BME280;41468;48.838;9.330;2022-11-21T09:40:28;97400.97;;;8.25;83.62
55604;BME280;41468;48.838;9.330;2022-11-21T09:46:11;97411.78;;;8.18;84.78
55604;BME280;41468;48.838;9.330;2022-11-21T09:48:54;97405.16;;;8.19;83.34
55604;BME280;41468;48.838;9.330;2022-11-21T09:51:25;97409.53;;;8.27;81.82
55604;BME280;41468;48.838;9.330;2022-11-21T09:54:02;97407.97;;;8.26;81.22
55604;BME280;41468;48.838;9.330;2022-11-21T09:56:35;97402.13;;;8.24;80.81
55604;BME280;41468;48.838;9.330;2022-11-21T10:01:45;97389.47;;;8.39;79.51
55604;BME280;41468;48.838;9.330;2022-11-21T10:04:12;97379.03;;;8.45;81.16
55604;BME280;41468;48.838;9.330;2022-11-21T10:07:07;97377.06;;;8.42;80.45
55604;BME280;41468;48.838;9.330;2022-11-21T10:12:42;97358.88;;;8.49;80.11
55604;BME280;41468;48.838;9.330;2022-11-21T10:15:25;97359.28;;;8.55;78.60
55604;BME280;41468;48.838;9.330;2022-11-21T10:21:23;97336.13;;;8.79;79.08
55604;BME280;41468;48.838;9.330;2022-11-21T10:26:57;97328.75;;;8.83;75.88
55604;BME280;41468;48.838;9.330;2022-11-21T10:29:35;97322.91;;;8.81;76.82
55604;BME280;41468;48.838;9.330;2022-11-21T10:32:16;97320.59;;;8.79;75.38
55604;BME280;41468;48.838;9.330;2022-11-21T10:34:56;97311.66;;;8.82;75.50
55604;BME280;41468;48.838;9.330;2022-11-21T10:37:31;97302.78;;;8.93;75.06
55604;BME280;41468;48.838;9.330;2022-11-21T10:42:46;97293.47;;;9.01;74.86
55604;BME280;41468;48.838;9.330;2022-11-21T10:45:17;97295.47;;;9.11;73.41
55604;BME280;41468;48.838;9.330;2022-11-21T10:47:46;97285.41;;;9.26;73.48
55604;BME280;41468;48.838;9.330;2022-11-21T10:50:40;97277.66;;;9.32;72.49
55604;BME280;41468;48.838;9.330;2022-11-21T10:53:17;97265.25;;;9.48;73.30
55604;BME280;41468;48.838;9.330;2022-11-21T10:56:11;97271.88;;;9.58;72.46
55604;BME280;41468;48.838;9.330;2022-11-21T10:58:41;97261.03;;;9.72;72.48
55604;BME280;41468;48.838;9.330;2022-11-21T11:01:22;97261.78;;;9.77;70.07
55604;BME280;41468;48.838;9.330;2022-11-21T11:06:54;97249.34;;;9.93;70.44
55604;BME280;41468;48.838;9.330;2022-11-21T11:09:32;97250.53;;;9.89;68.87
55604;BME280;41468;48.838;9.330;2022-11-21T11:14:49;97230.63;;;9.78;68.50
55604;BME280;41468;48.838;9.330;2022-11-21T11:17:25;97232.19;;;9.64;69.19
55604;BME280;41468;48.838;9.330;2022-11-21T11:22:58;97237.53;;;9.18;77.97
55604;BME280;41468;48.838;9.330;2022-11-21T11:25:25;97232.72;;;8.82;82.29
55604;BME280;41468;48.838;9.330;2022-11-21T11:27:51;97224.00;;;8.48;84.63
55604;BME280;41468;48.838;9.330;2022-11-21T11:30:18;97228.63;;;8.44;85.57
55604;BME280;41468;48.838;9.330;2022-11-21T11:32:45;97218.81;;;8.32;86.19
55604;BME280;41468;48.838;9.330;2022-11-21T11:37:57;97206.78;;;8.37;86.76
55604;BME280;41468;48.838;9.330;2022-11-21T11:40:36;97204.94;;;8.45;87.96
55604;BME280;41468;48.838;9.330;2022-11-21T11:43:12;97197.53;;;8.42;85.48
55604;BME280;41468;48.838;9.330;2022-11-21T11:49:09;97189.03;;;8.47;86.39
55604;BME280;41468;48.838;9.330;2022-11-21T11:51:54;97190.19;;;8.49;86.08
55604;BME280;41468;48.838;9.330;2022-11-21T11:54:26;97182.41;;;8.51;86.45
55604;BME280;41468;48.838;9.330;2022-11-21T11:56:56;97175.84;;;8.52;86.61
55604;BME280;41468;48.838;9.330;2022-11-21T11:59:27;97170.03;;;8.61;83.88
55604;BME280;41468;48.838;9.330;2022-11-21T12:02:03;97163.09;;;8.78;77.03
55604;BME280;41468;48.838;9.330;2022-11-21T12:04:47;97174.38;;;8.83;80.32
55604;BME280;41468;48.838;9.330;2022-11-21T12:07:20;97157.34;;;9.04;79.72
55604;BME280;41468;48.838;9.330;2022-11-21T12:10:20;97156.63;;;9.25;77.83
55604;BME280;41468;48.838;9.330;2022-11-21T12:13:02;97145.69;;;9.07;76.59
55604;BME280;41468;48.838;9.330;2022-11-21T12:15:35;97142.56;;;8.95;78.71
55604;BME280;41468;48.838;9.330;2022-11-21T12:21:12;97139.91;;;9.31;79.36
55604;BME280;41468;48.838;9.330;2022-11-21T12:26:15;97126.31;;;9.70;75.94
55604;BME280;41468;48.838;9.330;2022-11-21T12:55:35;97077.25;;;9.52;67.26
55604;BME280;41468;48.838;9.330;2022-11-21T12:58:07;97073.31;;;9.82;66.94
55604;BME280;41468;48.838;9.330;2022-11-21T13:04:01;97061.09;;;10.36;61.73
55604;BME280;41468;48.838;9.330;2022-11-21T13:06:32;97045.88;;;10.46;62.94
55604;BME280;41468;48.838;9.330;2022-11-21T13:09:00;97049.66;;;10.67;60.62
55604;BME280;41468;48.838;9.330;2022-11-21T13:14:50;97031.38;;;10.56;61.30
55604;BME280;41468;48.838;9.330;2022-11-21T13:19:59;97012.25;;;10.60;61.25
55604;BME280;41468;48.838;9.330;2022-11-21T13:22:51;97008.78;;;10.56;61.27
55604;BME280;41468;48.838;9.330;2022-11-21T13:30:47;97004.16;;;10.46;61.27
55604;BME280;41468;48.838;9.330;2022-11-21T13:36:04;96997.47;;;10.50;61.28
55604;BME280;41468;48.838;9.330;2022-11-21T13:52:49;96978.88;;;10.38;61.19
55604;BME280;41468;48.838;9.330;2022-11-21T14:08:40;96961.78;;;10.20;63.59
55604;BME280;41468;48.838;9.330;2022-11-21T14:11:30;96950.91;;;10.12;64.83
55604;BME280;41468;48.838;9.330;2022-11-21T14:14:00;96943.16;;;10.04;65.63
55604;BME280;41468;48.838;9.330;2022-11-21T14:16:35;96927.53;;;10.11;63.04
55604;BME280;41468;48.838;9.330;2022-11-21T14:19:02;96931.44;;;10.10;63.58
55604;BME280;41468;48.838;9.330;2022-11-21T14:21:30;96928.72;;;10.10;63.21
55604;BME280;41468;48.838;9.330;2022-11-21T14:24:03;96921.34;;;10.04;63.71
55604;BME280;41468;48.838;9.330;2022-11-21T14:26:38;96926.47;;;9.87;67.45
55604;BME280;41468;48.838;9.330;2022-11-21T14:29:38;96920.66;;;9.89;67.27
55604;BME280;41468;48.838;9.330;2022-11-21T14:32:12;96914.81;;;9.87;66.36
55604;BME280;41468;48.838;9.330;2022-11-21T14:34:39;96908.97;;;9.85;65.11
55604;BME280;41468;48.838;9.330;2022-11-21T14:37:06;96914.81;;;9.87;63.85
55604;BME280;41468;48.838;9.330;2022-11-21T14:39:38;96911.31;;;9.79;65.09
55604;BME280;41468;48.838;9.330;2022-11-21T14:42:12;96906.28;;;9.74;66.64
55604;BME280;41468;48.838;9.330;2022-11-21T14:44:40;96902.09;;;9.51;69.70
55604;BME280;41468;48.838;9.330;2022-11-21T14:47:14;96906.00;;;9.40;71.77
55604;BME280;41468;48.838;9.330;2022-11-21T14:49:53;96897.56;;;9.05;73.11
55604;BME280;41468;48.838;9.330;2022-11-21T14:52:24;96897.94;;;8.86;75.15
55604;BME280;41468;48.838;9.330;2022-11-21T14:54:58;96883.56;;;8.68;75.82
55604;BME280;41468;48.838;9.330;2022-11-21T14:57:45;96873.47;;;8.65;75.37
55604;BME280;41468;48.838;9.330;2022-11-21T15:00:15;96874.25;;;8.61;76.80
55604;BME280;41468;48.838;9.330;2022-11-21T15:03:16;96867.25;;;8.64;76.76
55604;BME280;41468;48.838;9.330;2022-11-21T15:05:44;96860.25;;;8.84;72.54
55604;BME280;41468;48.838;9.330;2022-11-21T15:08:31;96862.94;;;8.99;69.38
55604;BME280;41468;48.838;9.330;2022-11-21T15:11:18;96841.22;;;8.74;74.94
55604;BME280;41468;48.838;9.330;2022-11-21T15:13:51;96833.84;;;8.63;75.57
55604;BME280;41468;48.838;9.330;2022-11-21T15:16:24;96820.63;;;8.40;77.84
55604;BME280;41468;48.838;9.330;2022-11-21T15:18:51;96817.53;;;8.42;79.33
55604;BME280;41468;48.838;9.330;2022-11-21T15:21:18;96804.31;;;8.48;75.38
55604;BME280;41468;48.838;9.330;2022-11-21T15:23:44;96809.75;;;8.58;72.08
55604;BME280;41468;48.838;9.330;2022-11-21T15:26:30;96788.34;;;8.64;72.72
55604;BME280;41468;48.838;9.330;2022-11-21T15:28:58;96783.28;;;8.70;72.38